Barry, IL (62312)

7:04 PM CST on February 05, 2016 (GMT -0600)
West of Downtown Barry | | Change Station
CLOSE
Current Station
Personal Weather Station
Location: Barry, IL
Elevation: 728 ft
Nearby Weather Stations

Elev 728 ft 39.69 °N, 91.04 °W | Updated 2 seconds ago

Partly Cloudy
Partly Cloudy
32.2 °F
Feels Like 32 °F
N
0.0
Wind Variable Wind from North
Gusts 3.1 mph

Today
High -- | Low -- °F
--% Chance of Precip.
Yesterday
High -- | Low -- °F
Precip. -- in
Pressure 30.36 in
Visibility 10.0 miles
Clouds Scattered Clouds 12000 ft
Windchill 32 °F
Dew Point 14 °F
Humidity 47%
Rainfall 0.00 in
Snow Depth Not available.
7:08 AM 5:28 PM
Waning Crescent, 8% visible
METAR KPPQ 060055Z AUTO 00000KT 10SM SCT120 M01/M09 A3036 RMK AO2 T10141094
Pressure 30.36 in
Visibility 10.0 miles
Clouds Scattered Clouds 12000 ft
Windchill 32 °F
Dew Point 14 °F
Humidity 47%
Rainfall 0.00 in
Snow Depth Not available.
7:08 AM 5:28 PM
Waning Crescent, 8% visible
METAR KPPQ 060055Z AUTO 00000KT 10SM SCT120 M01/M09 A3036 RMK AO2 T10141094

10-Day Weather Forecast

Almanac

Astronomy

Feb. 05, 2016 Rise Set
Actual Time
Civil Twilight
Nautical Twilight
Astronomical Twilight
Moon
Length of Visible Light
Length of Day
Tomorrow will be .
, % of the Moon is Illuminated

Today's Extremes

State Highs State Lows

Community

WunderPhotos

Upload Photos

1,890,902 photos uploaded!

WunderBlog® & News

Nearby

Air Quality

  Air Quality AQ Index Pollutant
Not available.

Snow Depth

Station Depth Elevation

Earthquake Activity

City Distance Mag. Time & Date
Minimum magnitude displayed is 2.5.

Coastal Water Temperatures

Place Temperature

Stations

Nearby Weather Stations

Station Location Temp. Windchill Dew Point Humidity Wind Precip. Elev Updated Type
                   

Watches & Warnings

There are currently no watches in effect.